Time,TemperatureF,DewpointF,PressureIn,WindDirection,WindDirectionDegrees,WindSpeedMPH,WindSpeedGustMPH,Humidity,HourlyPrecipIn,Conditions,Clouds,dailyrainin,SoftwareType,DateUTC
2013-08-31 00:03:00,68.1,61.8,30.01,SSE,158,0.0,0.0,80,0.00,,,0.00,WUHU216HW,2013-08-31 05:03:00,
2013-08-31 00:08:00,68.1,62.1,30.01,South,180,0.0,0.0,81,0.00,,,0.00,WUHU216HW,2013-08-31 05:08:00,
2013-08-31 00:13:00,68.1,62.1,30.01,SSE,158,0.0,0.0,81,0.00,,,0.00,WUHU216HW,2013-08-31 05:13:00,
2013-08-31 00:18:00,67.8,61.8,30.01,SSE,158,0.0,0.0,81,0.00,,,0.00,WUHU216HW,2013-08-31 05:18:00,
2013-08-31 00:23:00,67.6,61.6,30.01,South,180,0.0,0.0,81,0.00,,,0.00,WUHU216HW,2013-08-31 05:23:00,
2013-08-31 00:28:00,67.2,61.3,30.01,SSE,158,0.0,0.0,81,0.00,,,0.00,WUHU216HW,2013-08-31 05:28:00,
2013-08-31 00:33:00,67.2,61.6,30.01,SSE,158,0.0,0.0,82,0.00,,,0.00,WUHU216HW,2013-08-31 05:33:00,
2013-08-31 00:38:00,67.2,61.9,30.01,South,180,0.0,0.0,83,0.00,,,0.00,WUHU216HW,2013-08-31 05:38:00,
2013-08-31 00:42:00,67.2,61.6,30.02,SSE,158,0.0,0.0,82,0.00,,,0.00,WUHU216HW,2013-08-31 05:42:00,
2013-08-31 00:47:00,66.9,61.2,30.02,South,180,0.0,0.0,82,0.00,,,0.00,WUHU216HW,2013-08-31 05:47:00,
2013-08-31 00:52:00,66.7,61.0,30.03,South,180,0.0,0.0,82,0.00,,,0.00,WUHU216HW,2013-08-31 05:52:00,
2013-08-31 00:58:00,66.7,61.0,30.03,South,180,0.0,0.0,82,0.00,,,0.00,WUHU216HW,2013-08-31 05:58:00,
2013-08-31 01:03:00,66.7,61.0,30.03,SSE,158,0.0,0.0,82,0.00,,,0.00,WUHU216HW,2013-08-31 06:03:00,
2013-08-31 01:07:00,66.7,61.4,30.03,South,180,0.0,0.0,83,0.00,,,0.00,WUHU216HW,2013-08-31 06:07:00,
2013-08-31 01:12:00,66.7,61.4,30.01,SSE,158,0.0,0.0,83,0.00,,,0.00,WUHU216HW,2013-08-31 06:12:00,
2013-08-31 01:17:00,66.7,61.7,30.01,SSE,158,0.0,0.0,84,0.00,,,0.00,WUHU216HW,2013-08-31 06:17:00,
2013-08-31 01:22:00,67.2,62.2,30.02,South,180,0.0,0.0,84,0.00,,,0.00,WUHU216HW,2013-08-31 06:22:00,
2013-08-31 01:27:00,67.1,61.7,30.03,South,180,0.0,0.0,83,0.00,,,0.00,WUHU216HW,2013-08-31 06:27:00,
2013-08-31 01:32:00,66.9,61.5,30.03,South,180,0.0,0.0,83,0.00,,,0.00,WUHU216HW,2013-08-31 06:32:00,
2013-08-31 01:37:00,66.9,61.5,30.03,SSE,158,0.0,0.0,83,0.00,,,0.00,WUHU216HW,2013-08-31 06:37:00,
2013-08-31 01:42:00,66.9,61.5,30.03,South,180,0.0,0.0,83,0.00,,,0.00,WUHU216HW,2013-08-31 06:42:00,
2013-08-31 01:47:00,66.9,61.9,30.04,South,180,0.0,0.0,84,0.00,,,0.00,WUHU216HW,2013-08-31 06:47:00,
2013-08-31 01:52:00,67.2,62.2,30.03,South,180,0.0,0.0,84,0.00,,,0.00,WUHU216HW,2013-08-31 06:52:00,
2013-08-31 01:57:00,67.2,62.2,30.03,SSE,158,0.0,0.0,84,0.00,,,0.00,WUHU216HW,2013-08-31 06:57:00,
2013-08-31 02:02:00,67.6,62.6,30.03,SSE,158,0.0,0.0,84,0.00,,,0.00,WUHU216HW,2013-08-31 07:02:00,
2013-08-31 02:07:00,67.6,62.6,30.03,SSE,158,0.0,0.0,84,0.00,,,0.00,WUHU216HW,2013-08-31 07:07:00,
2013-08-31 02:12:00,67.6,62.6,30.03,South,180,0.0,0.0,84,0.00,,,0.00,WUHU216HW,2013-08-31 07:12:00,
2013-08-31 02:17:00,67.6,62.6,30.03,SSE,158,0.0,0.0,84,0.00,,,0.00,WUHU216HW,2013-08-31 07:17:00,
2013-08-31 02:22:00,67.6,62.6,30.03,SSE,158,0.0,0.0,84,0.00,,,0.00,WUHU216HW,2013-08-31 07:22:00,
2013-08-31 02:27:00,67.8,63.1,30.03,South,180,0.0,0.0,85,0.00,,,0.00,WUHU216HW,2013-08-31 07:27:00,
2013-08-31 02:32:00,67.8,62.8,30.03,South,180,0.0,0.0,84,0.00,,,0.00,WUHU216HW,2013-08-31 07:32:00,
2013-08-31 02:37:00,67.8,62.8,30.03,WSW,248,0.0,0.0,84,0.00,,,0.00,WUHU216HW,2013-08-31 07:37:00,
2013-08-31 02:42:00,67.8,62.8,30.03,WSW,248,0.0,0.0,84,0.00,,,0.00,WUHU216HW,2013-08-31 07:42:00,
2013-08-31 02:47:00,67.8,62.8,30.03,WSW,248,0.0,0.0,84,0.00,,,0.00,WUHU216HW,2013-08-31 07:47:00,
2013-08-31 02:52:00,67.8,62.8,30.03,WSW,248,0.0,0.0,84,0.00,,,0.00,WUHU216HW,2013-08-31 07:52:00,
2013-08-31 02:57:00,67.8,62.8,30.03,West,270,0.0,0.0,84,0.00,,,0.00,WUHU216HW,2013-08-31 07:57:00,
2013-08-31 03:02:00,67.8,62.8,30.03,WSW,248,0.0,0.0,84,0.00,,,0.00,WUHU216HW,2013-08-31 08:02:00,
2013-08-31 03:07:00,67.8,62.8,30.02,WSW,248,0.0,0.0,84,0.00,,,0.00,WUHU216HW,2013-08-31 08:07:00,
2013-08-31 03:12:00,67.4,62.4,30.02,WSW,248,0.0,0.0,84,0.00,,,0.00,WUHU216HW,2013-08-31 08:12:00,
2013-08-31 03:17:00,67.6,62.9,30.02,WSW,248,0.0,0.0,85,0.00,,,0.00,WUHU216HW,2013-08-31 08:17:00,
2013-08-31 03:22:00,67.8,63.1,30.03,West,270,0.0,0.0,85,0.00,,,0.00,WUHU216HW,2013-08-31 08:22:00,
2013-08-31 03:27:00,68.1,63.4,30.03,WSW,248,0.0,0.0,85,0.00,,,0.00,WUHU216HW,2013-08-31 08:27:00,
2013-08-31 03:32:00,68.3,63.6,30.03,West,270,0.0,0.0,85,0.00,,,0.00,WUHU216HW,2013-08-31 08:32:00,
2013-08-31 03:37:00,68.9,64.1,30.03,West,270,0.0,0.0,85,0.00,,,0.00,WUHU216HW,2013-08-31 08:37:00,
2013-08-31 03:42:00,69.6,63.8,30.02,West,270,0.0,0.0,82,0.00,,,0.00,WUHU216HW,2013-08-31 08:42:00,
2013-08-31 03:47:00,70.3,63.8,30.01,West,270,0.0,0.0,80,0.00,,,0.00,WUHU216HW,2013-08-31 08:47:00,
2013-08-31 03:52:00,70.5,63.6,30.01,WSW,248,0.7,0.7,79,0.00,,,0.00,WUHU216HW,2013-08-31 08:52:00,
2013-08-31 03:57:00,70.7,63.8,30.01,WSW,248,0.0,0.7,79,0.00,,,0.00,WUHU216HW,2013-08-31 08:57:00,
2013-08-31 04:02:00,70.3,63.4,30.00,WSW,248,0.0,0.0,79,0.00,,,0.00,WUHU216HW,2013-08-31 09:02:00,
2013-08-31 04:07:00,69.9,63.5,29.99,SW,225,0.0,0.0,80,0.00,,,0.00,WUHU216HW,2013-08-31 09:07:00,
2013-08-31 04:12:00,69.6,63.4,29.99,SSE,158,0.0,0.0,81,0.00,,,0.00,WUHU216HW,2013-08-31 09:12:00,
2013-08-31 04:17:00,69.0,63.3,29.98,South,180,0.0,0.0,82,0.00,,,0.00,WUHU216HW,2013-08-31 09:17:00,
2013-08-31 04:22:00,68.7,62.9,29.98,SSE,158,0.0,0.0,82,0.00,,,0.00,WUHU216HW,2013-08-31 09:22:00,
2013-08-31 04:27:00,68.5,63.5,29.96,SSE,158,0.0,0.0,84,0.00,,,0.00,WUHU216HW,2013-08-31 09:27:00,
2013-08-31 04:32:00,68.3,63.6,29.96,South,180,0.0,0.0,85,0.00,,,0.00,WUHU216HW,2013-08-31 09:32:00,
2013-08-31 04:37:00,68.3,63.6,29.95,South,180,0.0,0.0,85,0.00,,,0.00,WUHU216HW,2013-08-31 09:37:00,
2013-08-31 04:42:00,68.3,63.6,29.94,South,180,0.0,3.7,85,0.00,,,0.00,WUHU216HW,2013-08-31 09:42:00,
2013-08-31 04:47:00,68.5,64.1,29.93,South,180,0.0,3.7,86,0.00,,,0.00,WUHU216HW,2013-08-31 09:47:00,
2013-08-31 04:52:00,68.5,64.1,29.92,South,180,0.0,6.4,86,0.00,,,0.00,WUHU216HW,2013-08-31 09:52:00,
2013-08-31 04:57:00,68.3,63.9,29.92,South,180,0.0,6.4,86,0.00,,,0.00,WUHU216HW,2013-08-31 09:57:00,
2013-08-31 05:02:00,68.3,63.9,29.91,SSE,158,0.0,2.4,86,0.00,,,0.00,WUHU216HW,2013-08-31 10:02:00,
2013-08-31 05:07:00,68.3,63.6,29.91,SSE,158,0.7,0.7,85,0.00,,,0.00,WUHU216HW,2013-08-31 10:07:00,
2013-08-31 05:12:00,68.3,63.9,29.91,SE,135,3.5,3.5,86,0.00,,,0.00,WUHU216HW,2013-08-31 10:12:00,
2013-08-31 05:17:00,68.5,64.1,29.91,SSE,158,0.0,3.5,86,0.00,,,0.00,WUHU216HW,2013-08-31 10:17:00,
2013-08-31 05:22:00,68.3,63.9,29.91,SE,135,0.0,3.5,86,0.00,,,0.00,WUHU216HW,2013-08-31 10:22:00,
2013-08-31 05:27:00,68.3,63.9,29.91,SSE,158,0.0,0.0,86,0.00,,,0.00,WUHU216HW,2013-08-31 10:27:00,
2013-08-31 05:32:00,68.3,63.9,29.91,SSE,158,4.0,4.0,86,0.00,,,0.00,WUHU216HW,2013-08-31 10:32:00,
2013-08-31 05:37:00,68.5,64.1,29.91,SSE,158,0.0,4.0,86,0.00,,,0.00,WUHU216HW,2013-08-31 10:37:00,
2013-08-31 05:42:00,68.3,63.9,29.90,South,180,0.0,1.8,86,0.00,,,0.00,WUHU216HW,2013-08-31 10:42:00,
2013-08-31 05:47:00,68.1,63.8,29.90,South,180,0.0,1.8,86,0.00,,,0.00,WUHU216HW,2013-08-31 10:47:00,
2013-08-31 05:52:00,68.1,63.8,29.90,South,180,0.0,0.0,86,0.00,,,0.00,WUHU216HW,2013-08-31 10:52:00,
2013-08-31 05:57:00,68.1,64.1,29.90,SSW,203,0.0,0.0,87,0.00,,,0.00,WUHU216HW,2013-08-31 10:57:00,
2013-08-31 06:02:00,67.8,63.7,29.91,SSE,158,4.2,4.2,87,0.00,,,0.00,WUHU216HW,2013-08-31 11:02:00,
2013-08-31 06:07:00,67.8,63.7,29.91,SSE,158,0.0,4.2,87,0.00,,,0.00,WUHU216HW,2013-08-31 11:07:00,
2013-08-31 06:12:00,67.8,63.7,29.91,South,180,0.0,4.2,87,0.00,,,0.00,WUHU216HW,2013-08-31 11:12:00,
2013-08-31 06:17:00,67.6,63.6,29.90,South,180,0.0,0.0,87,0.00,,,0.00,WUHU216HW,2013-08-31 11:17:00,
2013-08-31 06:22:00,67.4,63.4,29.91,SSE,158,0.0,0.0,87,0.00,,,0.00,WUHU216HW,2013-08-31 11:22:00,
2013-08-31 06:27:00,67.1,63.0,29.91,South,180,0.0,0.0,87,0.00,,,0.00,WUHU216HW,2013-08-31 11:27:00,
2013-08-31 06:32:00,66.9,62.8,29.91,South,180,0.0,0.0,87,0.00,,,0.00,WUHU216HW,2013-08-31 11:32:00,
2013-08-31 06:37:00,66.9,62.8,29.91,SSE,158,0.0,0.0,87,0.00,,,0.00,WUHU216HW,2013-08-31 11:37:00,
2013-08-31 06:42:00,66.7,62.7,29.91,SSW,203,0.0,0.0,87,0.00,,,0.00,WUHU216HW,2013-08-31 11:42:00,
2013-08-31 06:47:00,66.3,62.6,29.91,SW,225,0.0,0.0,88,0.00,,,0.00,WUHU216HW,2013-08-31 11:47:00,
2013-08-31 06:52:00,66.0,61.9,29.92,WSW,248,0.0,0.0,87,0.00,,,0.00,WUHU216HW,2013-08-31 11:52:00,
2013-08-31 06:57:00,66.0,61.9,29.92,SW,225,0.0,0.0,87,0.00,,,0.00,WUHU216HW,2013-08-31 11:57:00,
2013-08-31 07:02:00,66.0,61.9,29.92,SSW,203,0.0,0.0,87,0.00,,,0.00,WUHU216HW,2013-08-31 12:02:00,
2013-08-31 07:07:00,66.0,61.9,29.92,WSW,248,0.0,0.0,87,0.00,,,0.00,WUHU216HW,2013-08-31 12:07:00,
2013-08-31 07:12:00,66.2,62.4,29.92,WSW,248,0.0,0.0,88,0.00,,,0.00,WUHU216HW,2013-08-31 12:12:00,
2013-08-31 07:17:00,66.3,62.6,29.92,SW,225,0.0,0.0,88,0.00,,,0.00,WUHU216HW,2013-08-31 12:17:00,
2013-08-31 07:22:00,66.7,63.0,29.92,WSW,248,0.0,0.0,88,0.00,,,0.00,WUHU216HW,2013-08-31 12:22:00,
2013-08-31 07:27:00,66.7,63.0,29.92,WSW,248,0.0,0.0,88,0.00,,,0.00,WUHU216HW,2013-08-31 12:27:00,
2013-08-31 07:32:00,67.1,63.3,29.92,WSW,248,0.0,0.0,88,0.00,,,0.00,WUHU216HW,2013-08-31 12:32:00,
2013-08-31 07:37:00,67.2,63.5,29.93,SW,225,0.0,0.0,88,0.00,,,0.00,WUHU216HW,2013-08-31 12:37:00,
2013-08-31 07:42:00,68.5,64.8,29.93,SSW,203,0.0,0.0,88,0.00,,,0.00,WUHU216HW,2013-08-31 12:42:00,
2013-08-31 07:47:00,69.4,65.3,29.92,SW,225,0.0,0.0,87,0.00,,,0.00,WUHU216HW,2013-08-31 12:47:00,
2013-08-31 07:52:00,70.7,66.2,29.93,WSW,248,0.0,0.0,86,0.00,,,0.00,WUHU216HW,2013-08-31 12:52:00,
2013-08-31 07:57:00,73.0,66.9,29.92,SW,225,1.6,1.6,81,0.00,,,0.00,WUHU216HW,2013-08-31 12:57:00,
2013-08-31 08:02:00,74.4,67.2,29.92,SW,225,0.0,1.6,78,0.00,,,0.00,WUHU216HW,2013-08-31 13:02:00,
2013-08-31 08:07:00,75.5,67.4,29.93,SSW,203,0.0,0.0,76,0.00,,,0.00,WUHU216HW,2013-08-31 13:07:00,
2013-08-31 08:12:00,77.1,67.8,29.93,SW,225,0.0,5.3,73,0.00,,,0.00,WUHU216HW,2013-08-31 13:12:00,
2013-08-31 08:17:00,78.0,67.9,29.93,WSW,248,3.5,5.3,71,0.00,,,0.00,WUHU216HW,2013-08-31 13:17:00,
2013-08-31 08:22:00,78.8,68.1,29.93,SSW,203,0.0,3.5,70,0.00,,,0.00,WUHU216HW,2013-08-31 13:22:00,
2013-08-31 08:27:00,79.7,67.7,29.93,SW,225,0.0,3.5,68,0.00,,,0.00,WUHU216HW,2013-08-31 13:27:00,
2013-08-31 08:32:00,80.4,68.4,29.93,SSW,203,5.3,5.3,67,0.00,,,0.00,WUHU216HW,2013-08-31 13:32:00,
2013-08-31 08:37:00,80.7,67.8,29.93,WSW,248,9.8,9.8,65,0.00,,,0.00,WUHU216HW,2013-08-31 13:37:00,
2013-08-31 08:42:00,81.1,68.2,29.93,SW,225,5.3,9.8,65,0.00,,,0.00,WUHU216HW,2013-08-31 13:42:00,
2013-08-31 08:47:00,81.6,68.2,29.93,WSW,248,0.0,7.2,64,0.00,,,0.00,WUHU216HW,2013-08-31 13:47:00,
2013-08-31 08:52:00,82.2,68.2,29.93,SSW,203,4.8,5.3,63,0.00,,,0.00,WUHU216HW,2013-08-31 13:52:00,
2013-08-31 08:57:00,83.1,68.7,29.93,SSW,203,4.2,9.8,62,0.00,,,0.00,WUHU216HW,2013-08-31 13:57:00,
2013-08-31 09:02:00,83.8,68.9,29.94,WSW,248,0.0,9.8,61,0.00,,,0.00,WUHU216HW,2013-08-31 14:02:00,
2013-08-31 09:07:00,84.5,69.6,29.93,SSW,203,0.0,7.0,61,0.00,,,0.00,WUHU216HW,2013-08-31 14:07:00,
2013-08-31 09:12:00,85.4,69.5,29.93,WSW,248,10.2,10.2,59,0.00,,,0.00,WUHU216HW,2013-08-31 14:12:00,
2013-08-31 09:17:00,85.6,69.6,29.93,SW,225,0.0,10.2,59,0.00,,,0.00,WUHU216HW,2013-08-31 14:17:00,
2013-08-31 09:22:00,86.1,70.1,29.93,SSW,203,0.0,10.2,59,0.00,,,0.00,WUHU216HW,2013-08-31 14:22:00,
2013-08-31 09:27:00,86.7,69.6,29.93,SW,225,0.0,0.0,57,0.00,,,0.00,WUHU216HW,2013-08-31 14:27:00,
2013-08-31 09:32:00,87.0,69.4,29.93,SW,225,4.8,4.8,56,0.00,,,0.00,WUHU216HW,2013-08-31 14:32:00,
2013-08-31 09:37:00,87.0,69.4,29.93,SSW,203,1.6,4.8,56,0.00,,,0.00,WUHU216HW,2013-08-31 14:37:00,
2013-08-31 09:42:00,87.0,68.9,29.93,SSW,203,0.0,5.5,55,0.00,,,0.00,WUHU216HW,2013-08-31 14:42:00,
2013-08-31 09:47:00,87.0,68.9,29.93,SW,225,0.0,5.5,55,0.00,,,0.00,WUHU216HW,2013-08-31 14:47:00,
2013-08-31 09:52:00,87.6,69.4,29.93,WSW,248,0.5,5.5,55,0.00,,,0.00,WUHU216HW,2013-08-31 14:52:00,
2013-08-31 09:57:00,87.8,69.6,29.93,SSW,203,8.8,8.8,55,0.00,,,0.00,WUHU216HW,2013-08-31 14:57:00,
2013-08-31 10:02:00,87.9,69.2,29.93,SSW,203,4.0,8.8,54,0.00,,,0.00,WUHU216HW,2013-08-31 15:02:00,
2013-08-31 10:07:00,88.3,69.4,29.93,SSW,203,0.0,8.8,54,0.00,,,0.00,WUHU216HW,2013-08-31 15:07:00,
2013-08-31 10:12:00,88.8,70.0,29.93,South,180,0.0,4.0,54,0.00,,,0.00,WUHU216HW,2013-08-31 15:12:00,
2013-08-31 10:17:00,89.2,69.8,29.93,SW,225,8.3,8.3,53,0.00,,,0.00,WUHU216HW,2013-08-31 15:17:00,
2013-08-31 10:22:00,89.2,69.2,29.92,SE,135,0.0,8.3,52,0.00,,,0.00,WUHU216HW,2013-08-31 15:22:00,
2013-08-31 10:27:00,89.2,69.8,29.92,WSW,248,4.2,10.2,53,0.00,,,0.00,WUHU216HW,2013-08-31 15:27:00,
2013-08-31 10:32:00,89.4,69.4,29.92,SSW,203,6.6,10.2,52,0.00,,,0.00,WUHU216HW,2013-08-31 15:32:00,
2013-08-31 10:37:00,89.9,69.4,29.93,SSW,203,0.0,6.6,51,0.00,,,0.00,WUHU216HW,2013-08-31 15:37:00,
2013-08-31 10:42:00,90.1,70.1,29.93,South,180,0.0,6.6,52,0.00,,,0.00,WUHU216HW,2013-08-31 15:42:00,
2013-08-31 10:47:00,90.8,70.7,29.92,SSW,203,0.0,0.0,52,0.00,,,0.00,WUHU216HW,2013-08-31 15:47:00,
2013-08-31 10:52:00,90.6,68.8,29.92,SSW,203,0.0,5.3,49,0.00,,,0.00,WUHU216HW,2013-08-31 15:52:00,
2013-08-31 10:57:00,91.2,70.5,29.92,SSE,158,0.0,5.3,51,0.00,,,0.00,WUHU216HW,2013-08-31 15:57:00,
2013-08-31 11:02:00,91.7,70.4,29.92,SSE,158,0.0,0.0,50,0.00,,,0.00,WUHU216HW,2013-08-31 16:02:00,
2013-08-31 11:07:00,91.9,70.6,29.92,South,180,0.0,0.0,50,0.00,,,0.00,WUHU216HW,2013-08-31 16:07:00,
2013-08-31 11:12:00,92.4,70.4,29.92,South,180,0.0,0.0,49,0.00,,,0.00,WUHU216HW,2013-08-31 16:12:00,
2013-08-31 11:17:00,92.4,69.1,29.92,South,180,0.0,6.4,47,0.00,,,0.00,WUHU216HW,2013-08-31 16:17:00,
2013-08-31 11:22:00,91.9,68.7,29.92,SSW,203,1.3,6.4,47,0.00,,,0.00,WUHU216HW,2013-08-31 16:22:00,
2013-08-31 11:27:00,92.1,69.5,29.91,South,180,0.0,5.3,48,0.00,,,0.00,WUHU216HW,2013-08-31 16:27:00,
2013-08-31 11:32:00,92.8,70.1,29.91,SSW,203,2.0,2.0,48,0.00,,,0.00,WUHU216HW,2013-08-31 16:32:00,
2013-08-31 11:37:00,93.0,69.6,29.91,SSE,158,0.7,2.0,47,0.00,,,0.00,WUHU216HW,2013-08-31 16:37:00,
2013-08-31 11:42:00,93.0,69.6,29.91,South,180,0.0,2.0,47,0.00,,,0.00,WUHU216HW,2013-08-31 16:42:00,
2013-08-31 11:47:00,92.4,69.1,29.91,South,180,0.0,3.5,47,0.00,,,0.00,WUHU216HW,2013-08-31 16:47:00,
2013-08-31 11:52:00,91.9,68.7,29.91,SSW,203,1.8,3.5,47,0.00,,,0.00,WUHU216HW,2013-08-31 16:52:00,
2013-08-31 11:57:00,91.2,68.0,29.91,SSW,203,4.8,4.8,47,0.00,,,0.00,WUHU216HW,2013-08-31 16:57:00,
2013-08-31 12:02:00,90.6,68.2,29.91,South,180,2.0,4.8,48,0.00,,,0.00,WUHU216HW,2013-08-31 17:02:00,
2013-08-31 12:07:00,90.1,67.7,29.90,South,180,0.0,4.8,48,0.00,,,0.00,WUHU216HW,2013-08-31 17:07:00,
2013-08-31 12:12:00,89.9,67.5,29.91,South,180,0.0,3.7,48,0.00,,,0.00,WUHU216HW,2013-08-31 17:12:00,
2013-08-31 12:17:00,89.7,67.4,29.91,SW,225,0.0,2.4,48,0.00,,,0.00,WUHU216HW,2013-08-31 17:17:00,
2013-08-31 12:22:00,89.9,67.5,29.91,SSW,203,0.7,8.3,48,0.00,,,0.00,WUHU216HW,2013-08-31 17:22:00,
2013-08-31 12:27:00,90.1,67.7,29.90,SSW,203,1.0,8.3,48,0.00,,,0.00,WUHU216HW,2013-08-31 17:27:00,
2013-08-31 12:32:00,90.1,67.7,29.90,South,180,0.0,6.6,48,0.00,,,0.00,WUHU216HW,2013-08-31 17:32:00,
2013-08-31 12:37:00,89.9,67.5,29.91,SSW,203,8.5,8.5,48,0.00,,,0.00,WUHU216HW,2013-08-31 17:37:00,
2013-08-31 12:42:00,90.3,67.8,29.91,WSW,248,2.0,8.5,48,0.00,,,0.00,WUHU216HW,2013-08-31 17:42:00,
2013-08-31 12:47:00,90.8,68.3,29.91,SW,225,0.0,6.4,48,0.00,,,0.00,WUHU216HW,2013-08-31 17:47:00,
2013-08-31 12:52:00,91.2,68.0,29.91,South,180,0.0,6.4,47,0.00,,,0.00,WUHU216HW,2013-08-31 17:52:00,
2013-08-31 12:57:00,91.7,67.8,29.91,WSW,248,0.0,0.7,46,0.00,,,0.00,WUHU216HW,2013-08-31 17:57:00,
2013-08-31 13:02:00,91.4,68.2,29.90,South,180,0.0,0.7,47,0.00,,,0.00,WUHU216HW,2013-08-31 18:02:00,
2013-08-31 13:07:00,91.5,68.3,29.90,South,180,0.0,1.3,47,0.00,,,0.00,WUHU216HW,2013-08-31 18:07:00,
2013-08-31 13:12:00,91.9,69.3,29.90,SW,225,0.0,8.0,48,0.00,,,0.00,WUHU216HW,2013-08-31 18:12:00,
2013-08-31 13:17:00,92.1,68.8,29.90,SW,225,1.6,8.0,47,0.00,,,0.00,WUHU216HW,2013-08-31 18:17:00,
2013-08-31 13:22:00,91.9,68.7,29.91,WSW,248,0.0,1.6,47,0.00,,,0.00,WUHU216HW,2013-08-31 18:22:00,
2013-08-31 13:27:00,91.7,68.5,29.90,West,270,6.6,6.6,47,0.00,,,0.00,WUHU216HW,2013-08-31 18:27:00,
2013-08-31 13:32:00,91.7,68.5,29.91,NW,315,1.6,6.6,47,0.00,,,0.00,WUHU216HW,2013-08-31 18:32:00,
2013-08-31 13:37:00,91.0,67.8,29.93,West,270,4.8,6.6,47,0.00,,,0.00,WUHU216HW,2013-08-31 18:37:00,
2013-08-31 13:42:00,87.9,67.0,29.94,WNW,293,4.8,5.0,50,0.00,,,0.00,WUHU216HW,2013-08-31 18:42:00,
2013-08-31 13:47:00,87.0,66.7,29.93,West,270,3.5,5.0,51,0.00,,,0.00,WUHU216HW,2013-08-31 18:47:00,
2013-08-31 13:52:00,85.6,66.0,29.94,WNW,293,16.6,16.6,52,0.00,,,0.00,WUHU216HW,2013-08-31 18:52:00,
2013-08-31 13:57:00,84.3,66.9,29.93,WNW,293,6.1,16.6,56,0.00,,,0.00,WUHU216HW,2013-08-31 18:57:00,
2013-08-31 14:02:00,83.8,67.4,29.93,WNW,293,10.4,10.4,58,0.00,,,0.00,WUHU216HW,2013-08-31 19:02:00,
2013-08-31 14:07:00,83.4,67.6,29.94,WNW,293,1.0,10.4,59,0.00,,,0.00,WUHU216HW,2013-08-31 19:07:00,
2013-08-31 14:12:00,84.0,68.1,29.94,WNW,293,10.9,10.9,59,0.00,,,0.00,WUHU216HW,2013-08-31 19:12:00,
2013-08-31 14:17:00,85.1,68.1,29.94,West,270,1.3,10.9,57,0.00,,,0.00,WUHU216HW,2013-08-31 19:17:00,
2013-08-31 14:22:00,86.9,68.7,29.93,West,270,6.4,10.9,55,0.00,,,0.00,WUHU216HW,2013-08-31 19:22:00,
2013-08-31 14:27:00,88.3,69.0,29.94,WNW,293,12.2,12.2,53,0.00,,,0.00,WUHU216HW,2013-08-31 19:27:00,
2013-08-31 14:32:00,88.5,69.1,29.93,West,270,4.0,12.2,53,0.00,,,0.00,WUHU216HW,2013-08-31 19:32:00,
2013-08-31 14:37:00,88.8,68.4,29.94,West,270,4.6,12.2,51,0.00,,,0.00,WUHU216HW,2013-08-31 19:37:00,
2013-08-31 14:42:00,88.7,68.8,29.94,WNW,293,12.6,12.6,52,0.00,,,0.00,WUHU216HW,2013-08-31 19:42:00,
2013-08-31 14:47:00,88.7,68.2,29.94,NW,315,7.4,12.6,51,0.00,,,0.00,WUHU216HW,2013-08-31 19:47:00,
2013-08-31 14:52:00,87.6,67.2,29.93,WNW,293,8.0,12.6,51,0.00,,,0.00,WUHU216HW,2013-08-31 19:52:00,
2013-08-31 14:57:00,86.1,67.0,29.93,NW,315,7.4,8.8,53,0.00,,,0.00,WUHU216HW,2013-08-31 19:57:00,
2013-08-31 15:02:00,84.7,66.2,29.93,NW,315,4.0,13.1,54,0.00,,,0.00,WUHU216HW,2013-08-31 20:02:00,
2013-08-31 15:07:00,83.4,66.0,29.93,NNW,338,10.7,13.1,56,0.00,,,0.00,WUHU216HW,2013-08-31 20:07:00,
2013-08-31 15:12:00,80.9,67.1,29.93,NNW,338,2.0,10.7,63,0.00,,,0.00,WUHU216HW,2013-08-31 20:12:00,
2013-08-31 15:17:00,78.4,66.9,29.93,WNW,293,0.0,2.0,68,0.00,,,0.00,WUHU216HW,2013-08-31 20:17:00,
2013-08-31 15:22:00,76.8,66.3,29.93,NW,315,0.0,2.0,70,0.02,,,0.02,WUHU216HW,2013-08-31 20:22:00,
2013-08-31 15:27:00,76.1,66.8,29.95,WNW,293,2.6,2.6,73,0.02,,,0.02,WUHU216HW,2013-08-31 20:27:00,
2013-08-31 15:32:00,76.4,66.7,29.95,NW,315,0.0,2.6,72,0.02,,,0.02,WUHU216HW,2013-08-31 20:32:00,
2013-08-31 15:37:00,77.5,67.4,29.95,NNW,338,0.0,9.6,71,0.02,,,0.02,WUHU216HW,2013-08-31 20:37:00,
2013-08-31 15:42:00,78.0,64.8,29.93,NNW,338,18.5,18.5,64,0.02,,,0.02,WUHU216HW,2013-08-31 20:42:00,
2013-08-31 15:47:00,78.0,62.0,29.93,North,0,12.6,18.5,58,0.02,,,0.02,WUHU216HW,2013-08-31 20:47:00,
2013-08-31 15:52:00,77.7,61.2,29.93,North,0,11.8,18.5,57,0.02,,,0.02,WUHU216HW,2013-08-31 20:52:00,
2013-08-31 15:57:00,78.0,62.6,29.93,North,0,4.8,13.3,59,0.02,,,0.02,WUHU216HW,2013-08-31 20:57:00,
2013-08-31 16:02:00,78.4,62.4,29.91,NNE,23,0.0,6.4,58,0.02,,,0.02,WUHU216HW,2013-08-31 21:02:00,
2013-08-31 16:07:00,77.9,62.4,29.90,North,0,0.0,6.1,59,0.02,,,0.02,WUHU216HW,2013-08-31 21:07:00,
2013-08-31 16:12:00,77.3,61.8,29.88,East,90,0.0,0.0,59,0.02,,,0.02,WUHU216HW,2013-08-31 21:12:00,
2013-08-31 16:17:00,76.8,61.8,29.89,East,90,0.0,0.0,60,0.02,,,0.02,WUHU216HW,2013-08-31 21:17:00,
2013-08-31 16:22:00,76.6,61.7,29.90,ESE,113,0.0,0.0,60,0.00,,,0.02,WUHU216HW,2013-08-31 21:22:00,
2013-08-31 16:27:00,76.2,61.8,29.91,WSW,248,0.0,0.0,61,0.00,,,0.02,WUHU216HW,2013-08-31 21:27:00,
2013-08-31 16:32:00,76.1,61.6,29.92,SSW,203,0.0,0.0,61,0.00,,,0.02,WUHU216HW,2013-08-31 21:32:00,
2013-08-31 16:37:00,75.7,60.9,29.92,West,270,10.9,10.9,60,0.00,,,0.02,WUHU216HW,2013-08-31 21:37:00,
2013-08-31 16:42:00,75.5,60.4,29.93,WSW,248,6.4,10.9,59,0.00,,,0.02,WUHU216HW,2013-08-31 21:42:00,
2013-08-31 16:47:00,75.5,59.7,29.92,SSW,203,13.3,13.3,58,0.00,,,0.02,WUHU216HW,2013-08-31 21:47:00,
2013-08-31 16:52:00,75.3,59.5,29.92,SSW,203,4.6,13.3,58,0.00,,,0.02,WUHU216HW,2013-08-31 21:52:00,
2013-08-31 16:57:00,75.3,59.5,29.91,SW,225,0.0,8.3,58,0.00,,,0.02,WUHU216HW,2013-08-31 21:57:00,
2013-08-31 17:02:00,75.0,59.7,29.91,SSW,203,0.0,4.2,59,0.00,,,0.02,WUHU216HW,2013-08-31 22:02:00,
2013-08-31 17:07:00,75.0,60.2,29.90,SSW,203,0.0,4.2,60,0.00,,,0.02,WUHU216HW,2013-08-31 22:07:00,
2013-08-31 17:12:00,75.9,61.5,29.89,SSW,203,0.0,0.0,61,0.00,,,0.02,WUHU216HW,2013-08-31 22:12:00,
2013-08-31 17:17:00,76.6,61.7,29.88,SSW,203,0.0,2.4,60,0.00,,,0.02,WUHU216HW,2013-08-31 22:17:00,
2013-08-31 17:22:00,77.1,62.2,29.88,SSW,203,0.0,2.4,60,0.00,,,0.02,WUHU216HW,2013-08-31 22:22:00,
2013-08-31 17:27:00,77.7,62.2,29.88,SW,225,6.4,6.4,59,0.00,,,0.02,WUHU216HW,2013-08-31 22:27:00,
2013-08-31 17:32:00,77.9,61.9,29.88,WSW,248,0.0,6.4,58,0.00,,,0.02,WUHU216HW,2013-08-31 22:32:00,
2013-08-31 17:37:00,78.0,62.6,29.88,SW,225,0.0,6.4,59,0.00,,,0.02,WUHU216HW,2013-08-31 22:37:00,
2013-08-31 17:42:00,78.0,62.0,29.88,SW,225,0.5,0.5,58,0.00,,,0.02,WUHU216HW,2013-08-31 22:42:00,
2013-08-31 17:47:00,77.5,62.0,29.88,West,270,0.0,0.5,59,0.00,,,0.02,WUHU216HW,2013-08-31 22:47:00,
2013-08-31 17:52:00,76.6,61.7,29.88,WSW,248,0.0,0.5,60,0.00,,,0.02,WUHU216HW,2013-08-31 22:52:00,
2013-08-31 17:57:00,76.6,61.7,29.88,West,270,0.0,0.0,60,0.00,,,0.02,WUHU216HW,2013-08-31 22:57:00,
2013-08-31 18:02:00,77.0,61.5,29.89,WSW,248,1.8,1.8,59,0.00,,,0.02,WUHU216HW,2013-08-31 23:02:00,
2013-08-31 18:07:00,77.1,61.2,29.89,West,270,0.0,6.4,58,0.00,,,0.02,WUHU216HW,2013-08-31 23:07:00,
2013-08-31 18:12:00,77.9,61.4,29.89,SW,225,0.0,6.4,57,0.00,,,0.02,WUHU216HW,2013-08-31 23:12:00,
2013-08-31 18:17:00,78.6,61.0,29.89,West,270,7.7,7.7,55,0.00,,,0.02,WUHU216HW,2013-08-31 23:17:00,
2013-08-31 18:22:00,79.3,61.2,29.89,West,270,6.6,7.7,54,0.00,,,0.02,WUHU216HW,2013-08-31 23:22:00,
2013-08-31 18:27:00,79.1,61.0,29.89,West,270,13.9,15.2,54,0.00,,,0.02,WUHU216HW,2013-08-31 23:27:00,
2013-08-31 18:32:00,78.0,61.0,29.89,West,270,9.8,15.2,55,0.00,,,0.02,WUHU216HW,2013-08-31 23:32:00,
2013-08-31 18:37:00,77.5,61.0,29.90,WNW,293,7.4,13.9,57,0.00,,,0.02,WUHU216HW,2013-08-31 23:37:00,
2013-08-31 18:42:00,77.5,61.2,29.90,West,270,4.8,7.4,58,0.00,,,0.02,WUHU216HW,2013-08-31 23:42:00,
2013-08-31 18:47:00,77.1,61.2,29.90,WNW,293,7.2,7.2,58,0.00,,,0.02,WUHU216HW,2013-08-31 23:47:00,
2013-08-31 18:52:00,76.4,61.5,29.90,West,270,4.0,8.3,60,0.00,,,0.02,WUHU216HW,2013-08-31 23:52:00,
2013-08-31 18:57:00,76.1,61.6,29.90,West,270,5.0,8.3,61,0.00,,,0.02,WUHU216HW,2013-08-31 23:57:00,
2013-08-31 19:02:00,75.7,61.7,29.90,NW,315,8.0,8.0,62,0.00,,,0.02,WUHU216HW,2013-09-01 00:02:00,
2013-08-31 19:07:00,75.9,62.4,29.90,WNW,293,0.0,8.0,63,0.00,,,0.02,WUHU216HW,2013-09-01 00:07:00,
2013-08-31 19:12:00,76.6,63.0,29.90,WNW,293,0.0,1.3,63,0.00,,,0.02,WUHU216HW,2013-09-01 00:12:00,
2013-08-31 19:17:00,76.2,62.7,29.90,WNW,293,4.6,4.6,63,0.00,,,0.02,WUHU216HW,2013-09-01 00:17:00,
2013-08-31 19:22:00,75.9,62.8,29.90,WNW,293,0.0,4.6,64,0.00,,,0.02,WUHU216HW,2013-09-01 00:22:00,
2013-08-31 19:27:00,75.7,63.1,29.90,WNW,293,3.1,3.7,65,0.00,,,0.02,WUHU216HW,2013-09-01 00:27:00,
2013-08-31 19:32:00,75.0,62.8,29.90,WNW,293,0.0,3.1,66,0.00,,,0.02,WUHU216HW,2013-09-01 00:32:00,
2013-08-31 19:37:00,74.8,63.1,29.90,NW,315,10.9,10.9,67,0.00,,,0.02,WUHU216HW,2013-09-01 00:37:00,
2013-08-31 19:42:00,74.8,63.1,29.91,WNW,293,7.4,10.9,67,0.00,,,0.02,WUHU216HW,2013-09-01 00:42:00,
2013-08-31 19:47:00,74.8,63.1,29.91,WNW,293,9.1,10.9,67,0.00,,,0.02,WUHU216HW,2013-09-01 00:47:00,
2013-08-31 19:52:00,74.3,60.4,29.92,NW,315,10.2,10.2,62,0.00,,,0.02,WUHU216HW,2013-09-01 00:52:00,
2013-08-31 19:57:00,74.1,58.8,29.92,WNW,293,6.1,10.2,59,0.00,,,0.02,WUHU216HW,2013-09-01 00:57:00,
2013-08-31 20:02:00,74.1,58.3,29.92,NW,315,5.9,10.2,58,0.00,,,0.02,WUHU216HW,2013-09-01 01:02:00,
2013-08-31 20:07:00,74.1,57.6,29.92,NNW,338,0.0,7.4,57,0.00,,,0.02,WUHU216HW,2013-09-01 01:07:00,
2013-08-31 20:12:00,73.5,57.3,29.92,NNE,23,9.4,9.4,57,0.00,,,0.02,WUHU216HW,2013-09-01 01:12:00,
2013-08-31 20:17:00,73.2,56.9,29.93,NW,315,3.5,9.8,57,0.00,,,0.02,WUHU216HW,2013-09-01 01:17:00,
2013-08-31 20:22:00,72.8,57.1,29.93,NNW,338,3.1,10.2,58,0.00,,,0.02,WUHU216HW,2013-09-01 01:22:00,
2013-08-31 20:27:00,72.5,56.8,29.93,NNW,338,7.4,10.2,58,0.00,,,0.02,WUHU216HW,2013-09-01 01:27:00,
2013-08-31 20:32:00,72.3,56.6,29.94,NW,315,10.4,10.4,58,0.00,,,0.02,WUHU216HW,2013-09-01 01:32:00,
2013-08-31 20:37:00,71.7,56.6,29.95,WNW,293,1.3,12.0,59,0.00,,,0.02,WUHU216HW,2013-09-01 01:37:00,
2013-08-31 20:42:00,71.4,56.3,29.95,NW,315,6.4,12.0,59,0.00,,,0.02,WUHU216HW,2013-09-01 01:42:00,
2013-08-31 20:47:00,71.2,56.6,29.95,NW,315,0.0,6.4,60,0.00,,,0.02,WUHU216HW,2013-09-01 01:47:00,
2013-08-31 20:52:00,70.7,56.2,29.96,NNW,338,10.4,17.6,60,0.00,,,0.02,WUHU216HW,2013-09-01 01:52:00,
2013-08-31 20:57:00,70.5,56.0,29.97,NW,315,6.4,17.6,60,0.00,,,0.02,WUHU216HW,2013-09-01 01:57:00,
2013-08-31 21:02:00,70.3,56.3,29.97,NNW,338,2.6,10.4,61,0.00,,,0.02,WUHU216HW,2013-09-01 02:02:00,
2013-08-31 21:07:00,69.9,55.9,29.97,NNW,338,1.0,6.4,61,0.00,,,0.02,WUHU216HW,2013-09-01 02:07:00,
2013-08-31 21:12:00,69.6,55.6,29.98,North,0,0.0,6.1,61,0.00,,,0.02,WUHU216HW,2013-09-01 02:12:00,
2013-08-31 21:17:00,69.4,55.4,29.98,North,0,0.0,3.5,61,0.00,,,0.02,WUHU216HW,2013-09-01 02:17:00,
2013-08-31 21:22:00,68.9,55.3,29.98,NNW,338,0.0,3.5,62,0.00,,,0.02,WUHU216HW,2013-09-01 02:22:00,
2013-08-31 21:27:00,68.5,54.9,29.98,North,0,0.0,0.0,62,0.00,,,0.02,WUHU216HW,2013-09-01 02:27:00,
2013-08-31 21:32:00,68.3,55.2,29.98,NNW,338,1.8,2.9,63,0.00,,,0.02,WUHU216HW,2013-09-01 02:32:00,
2013-08-31 21:37:00,68.1,55.0,29.98,North,0,0.0,2.9,63,0.00,,,0.02,WUHU216HW,2013-09-01 02:37:00,
2013-08-31 21:42:00,67.8,54.7,29.98,North,0,0.0,0.0,63,0.00,,,0.02,WUHU216HW,2013-09-01 02:42:00,
2013-08-31 21:47:00,67.2,54.6,29.98,NW,315,0.0,0.0,64,0.00,,,0.02,WUHU216HW,2013-09-01 02:47:00,
2013-08-31 21:52:00,67.1,54.6,29.98,NW,315,0.0,0.0,64,0.00,,,0.02,WUHU216HW,2013-09-01 02:52:00,
2013-08-31 21:57:00,66.7,54.5,29.98,NW,315,0.0,0.0,65,0.00,,,0.02,WUHU216HW,2013-09-01 02:57:00,
2013-08-31 22:02:00,66.3,54.6,29.99,NW,315,0.0,0.0,66,0.00,,,0.02,WUHU216HW,2013-09-01 03:02:00,
2013-08-31 22:07:00,66.0,54.2,29.99,NW,315,0.0,0.0,66,0.00,,,0.02,WUHU216HW,2013-09-01 03:07:00,
2013-08-31 22:12:00,65.8,54.5,29.99,NW,315,0.0,0.7,67,0.00,,,0.02,WUHU216HW,2013-09-01 03:12:00,
2013-08-31 22:17:00,65.4,54.1,29.99,NW,315,0.0,0.7,67,0.00,,,0.02,WUHU216HW,2013-09-01 03:17:00,
2013-08-31 22:22:00,64.9,54.1,30.00,WNW,293,0.0,0.0,68,0.00,,,0.02,WUHU216HW,2013-09-01 03:22:00,
2013-08-31 22:27:00,64.7,54.2,29.99,NW,315,0.0,1.3,69,0.00,,,0.02,WUHU216HW,2013-09-01 03:27:00,
2013-08-31 22:32:00,64.5,54.2,30.00,WNW,293,0.0,1.3,69,0.00,,,0.02,WUHU216HW,2013-09-01 03:32:00,
2013-08-31 22:37:00,64.2,53.8,30.00,NNW,338,0.0,0.0,69,0.00,,,0.02,WUHU216HW,2013-09-01 03:37:00,
2013-08-31 22:42:00,64.2,53.8,30.00,NNW,338,0.0,0.0,69,0.00,,,0.02,WUHU216HW,2013-09-01 03:42:00,
2013-08-31 22:47:00,64.2,53.8,30.00,NW,315,0.0,0.0,69,0.00,,,0.02,WUHU216HW,2013-09-01 03:47:00,
2013-08-31 22:52:00,64.2,53.8,30.00,NW,315,0.0,1.0,69,0.00,,,0.02,WUHU216HW,2013-09-01 03:52:00,
2013-08-31 22:57:00,64.2,53.8,30.00,North,0,0.0,1.0,69,0.00,,,0.02,WUHU216HW,2013-09-01 03:57:00,
2013-08-31 23:01:00,64.2,53.8,30.00,NW,315,0.0,0.0,69,0.00,,,0.02,WUHU216HW,2013-09-01 04:01:00,
2013-08-31 23:06:00,64.2,53.8,30.00,NW,315,0.0,0.0,69,0.00,,,0.02,WUHU216HW,2013-09-01 04:06:00,
2013-08-31 23:11:00,64.0,53.7,30.00,NW,315,0.0,0.0,69,0.00,,,0.02,WUHU216HW,2013-09-01 04:11:00,
2013-08-31 23:16:00,63.8,53.5,30.00,WNW,293,2.4,2.4,69,0.00,,,0.02,WUHU216HW,2013-09-01 04:16:00,
2013-08-31 23:21:00,63.6,53.3,30.00,NW,315,0.0,2.4,69,0.00,,,0.02,WUHU216HW,2013-09-01 04:21:00,
2013-08-31 23:26:00,63.6,53.3,30.00,NW,315,0.0,2.4,69,0.00,,,0.02,WUHU216HW,2013-09-01 04:26:00,
2013-08-31 23:31:00,63.6,53.3,30.00,WNW,293,0.0,1.6,69,0.00,,,0.02,WUHU216HW,2013-09-01 04:31:00,
2013-08-31 23:36:00,63.5,53.1,30.00,NW,315,0.0,1.6,69,0.00,,,0.02,WUHU216HW,2013-09-01 04:36:00,
2013-08-31 23:41:00,63.3,52.9,30.00,NW,315,0.0,0.0,69,0.00,,,0.02,WUHU216HW,2013-09-01 04:41:00,
2013-08-31 23:46:00,63.3,52.9,30.00,NW,315,0.0,0.0,69,0.00,,,0.02,WUHU216HW,2013-09-01 04:46:00,
2013-08-31 23:51:00,63.3,52.9,30.00,NW,315,0.0,0.0,69,0.00,,,0.02,WUHU216HW,2013-09-01 04:51:00,
2013-08-31 23:56:00,63.1,52.8,30.00,North,0,0.0,0.0,69,0.00,,,0.02,WUHU216HW,2013-09-01 04:56:00,